Historyczne dane pomiarowe

Dodano dane terminowe – wersja testowa.

Dane z okresu 1951-2018

Wersja bazy: 1.27 [2018-11-28, lista zmian], aktualizacja planowana na 2018-12-07

Dane meteo z obszaru Polski uzyskane na podstawie danych udostępnionych przez Instytut Meteorologii i Gospodarki Wodnej – Państwowy Instytut Badawczy.

 

Wybierz Datę:    

       

TemperaturaWilgotnośćWiatrCiśnienieOpadyŚniegCzas trwania zjawisk
 Stacja t tx tn tng RH VA  wxwx mslp ppp RRR   cm mm wxwxwxwxwxwxwx
1959-11-08 4.6 6.1 3.8 4.4 94.5- 8.0 2.3---- 2.0------------
1959-11-09 4.6 5.9 3.6 3.8 94.8- 8.0 4.7---- 2.0------------
1959-11-10 4.7 5.3 3.6 4.4 95.8- 8.0 2.3---- 7.7------------
1959-11-11 5.4 6.1 3.5 3.4 93.0- 8.0 1.3---- 2.0------------
1959-11-12 3.4 5.5 1.3 3.0 94.0- 8.0 1.7---- 3.7------------
1959-11-13 3.6 4.3 1.3 1.8 90.5- 8.0 5.3---- 0.0------------
1959-11-14 4.6 6.6 2.7 3.3 83.0- 8.0 6.0---- 0.0------------
1959-11-15 0.8 4.1 -0.9 -0.7 77.0- 2.7 8.7---- 0.0------------
1959-11-16 -2.8 -0.5 -4.3 -4.9 77.0- 8.0 10.7---- 0.7------------
1959-11-17 -2.8 -2.1 -4.0 -3.9 90.3- 8.0 4.0---- 0.7-- 1---------
1959-11-18 -0.5 0.5 -3.1 -3.7 94.5- 8.0 9.3---- 0.3-- 3---------
1959-11-19 0.8 1.2 -0.8 -0.9 90.5- 8.0 4.3---- 3.0-- 2---------
1959-11-20 0.8 1.5 0.2 0.3 94.5- 8.0 2.0---- 0.3------------
1959-11-21 -3.0 0.5 -5.6 -0.6 93.0- 5.3 3.3---- 0.0------------
1959-11-22 -3.3 1.8 -8.6-11.8 67.5- 0.3 1.7---- 0.0------------
1959-11-23 -1.5 1.6 -7.6-10.7 87.5- 5.3 3.3---- 0.0------------
1959-11-24 1.4 2.8 -1.1 -1.5 78.3- 8.0 3.0---- 0.0------------
1959-11-25 -0.4 4.6 -3.1 -5.3 76.5- 3.0 1.3---- 0.0------------
1959-11-26 -4.2 -2.5 -9.2-12.5 93.8- 8.0 1.7---- 0.0------------
1959-11-27 0.3 1.0 -2.8 -2.6 82.3- 8.0 6.3---- 0.0------------
1959-11-28 0.2 2.5 -2.8 -4.6 80.0- 6.0 4.3---- 0.0------------
1959-11-29 2.6 4.0 -0.7 -2.4 88.5- 8.0 2.3---- 0.4------------
1959-11-30 1.8 4.0 -0.9 -0.3 95.3- 8.0 1.3---- 0.0------------
1959-12-01 1.4 3.0 -0.7 -0.4 93.8- 8.0 6.3---- 0.8------------
1959-12-02 1.9 2.2 0.6 0.7 92.8- 8.0 3.0---- 5.4------------
1959-12-03 5.0 6.3 1.7 1.7 96.3- 8.0 0.3---- 0.0------------
1959-12-04 -0.3 4.8 -2.0 1.8 95.0- 8.0 6.3---- 0.1------------
1959-12-05 -9.5 -1.7-13.0 -5.0 64.3- 5.7 9.0---- 0.2------------
1959-12-06-16.7-11.7-19.2-17.2 68.8- 1.3 8.0---- 0.0------------
1959-12-07-17.1-14.5-21.8-22.0 58.0- 7.0 12.7---- 0.0------------
158.8 ms

 

Źródłem pochodzenia danych jest Instytut Meteorologii i Gospodarki Wodnej – Państwowy Instytut Badawczy. Dane Instytutu Meteorologii i Gospodarki Wodnej – Państwowego Instytutu Badawczego zostały przetworzone.

Dane źródłowe można odnaleźć na stronie https://dane.imgw.pl